createdAt,value
2019-02-08T00:00:22.987Z,4.67
2019-02-08T00:02:51.480Z,5.07
2019-02-08T00:05:20.278Z,4.93
2019-02-08T00:07:48.735Z,5.73
2019-02-08T00:10:18.956Z,6.03
2019-02-08T00:12:47.512Z,5.27
2019-02-08T00:15:18.779Z,5.97
2019-02-08T00:17:47.314Z,5.67
2019-02-08T00:20:17.334Z,6.23
2019-02-08T00:22:45.785Z,5.83
2019-02-08T00:25:16.392Z,5.63
2019-02-08T00:27:44.993Z,6.20
2019-02-08T00:30:16.885Z,6.87
2019-02-08T00:32:45.410Z,6.33
2019-02-08T00:35:14.475Z,6.87
2019-02-08T00:37:43.005Z,7.27
2019-02-08T00:40:14.197Z,6.23
2019-02-08T00:42:42.937Z,6.37
2019-02-08T00:45:17.423Z,7.60
2019-02-08T00:47:46.253Z,7.87
2019-02-08T00:50:27.915Z,9.97
2019-02-08T00:52:56.379Z,18.90
2019-02-08T00:55:25.717Z,10.93
2019-02-08T00:57:54.462Z,10.57
2019-02-08T01:00:23.525Z,7.57
2019-02-08T01:02:53.591Z,6.63
2019-02-08T01:05:28.771Z,6.97
2019-02-08T01:07:57.645Z,7.20
2019-02-08T01:10:28.406Z,6.90
2019-02-08T01:12:57.328Z,6.93
2019-02-08T01:15:28.739Z,7.17
2019-02-08T01:17:57.341Z,6.60
2019-02-08T01:20:26.223Z,7.03
2019-02-08T01:22:54.911Z,7.73
2019-02-08T01:25:25.303Z,6.77
2019-02-08T01:27:53.846Z,7.87
2019-02-08T01:30:29.943Z,7.43
2019-02-08T01:32:58.493Z,7.10
2019-02-08T01:35:27.282Z,7.07
2019-02-08T01:37:57.347Z,7.30
2019-02-08T01:40:28.047Z,6.00
2019-02-08T01:42:56.465Z,6.97
2019-02-08T01:45:30.001Z,7.10
2019-02-08T01:48:04.004Z,6.53
2019-02-08T01:50:32.454Z,6.10
2019-02-08T01:53:01.182Z,6.00
2019-02-08T01:55:29.817Z,6.57
2019-02-08T01:57:58.441Z,6.90
2019-02-08T02:00:40.684Z,6.33
2019-02-08T02:03:10.250Z,6.07
2019-02-08T02:05:38.713Z,6.50
2019-02-08T02:08:08.221Z,6.07
2019-02-08T02:10:42.778Z,6.00
2019-02-08T02:13:11.477Z,5.60
2019-02-08T02:15:40.315Z,5.87
2019-02-08T02:18:09.826Z,6.03
2019-02-08T02:20:40.446Z,5.90
2019-02-08T02:23:10.051Z,5.73
2019-02-08T02:25:39.350Z,5.93
2019-02-08T02:28:07.864Z,6.03
2019-02-08T02:30:37.352Z,5.63
2019-02-08T02:33:08.650Z,6.70
2019-02-08T02:35:37.124Z,5.67
2019-02-08T02:38:05.901Z,6.13
2019-02-08T02:40:34.431Z,6.80
2019-02-08T02:43:02.882Z,5.97
2019-02-08T02:45:37.062Z,6.57
2019-02-08T02:48:07.050Z,6.77
2019-02-08T02:50:35.566Z,6.13
2019-02-08T02:53:04.460Z,6.50
2019-02-08T02:55:32.971Z,6.53
2019-02-08T02:58:01.383Z,5.70
2019-02-08T03:00:32.689Z,5.97
2019-02-08T03:03:01.102Z,6.90
2019-02-08T03:05:29.635Z,5.97
2019-02-08T03:07:58.094Z,5.83
2019-02-08T03:10:26.639Z,6.33
2019-02-08T03:12:55.073Z,5.73
2019-02-08T03:15:24.584Z,6.67
2019-02-08T03:17:53.823Z,5.63
2019-02-08T03:20:24.172Z,5.57
2019-02-08T03:22:52.625Z,6.17
2019-02-08T03:25:23.904Z,6.33
2019-02-08T03:27:52.859Z,6.00
2019-02-08T03:30:28.405Z,5.87
2019-02-08T03:32:56.892Z,5.63
2019-02-08T03:35:27.016Z,5.63
2019-02-08T03:37:56.420Z,5.87
2019-02-08T03:40:27.204Z,5.83
2019-02-08T03:42:55.652Z,5.20
2019-02-08T03:45:25.044Z,5.30
2019-02-08T03:47:53.670Z,6.17
2019-02-08T03:50:23.577Z,5.13
2019-02-08T03:52:53.212Z,4.90
2019-02-08T03:55:23.487Z,6.00
2019-02-08T03:57:51.973Z,4.77
2019-02-08T04:00:30.658Z,4.70
2019-02-08T04:02:59.201Z,6.27
2019-02-08T04:05:27.793Z,5.57
2019-02-08T04:07:56.302Z,4.00
2019-02-08T04:10:24.795Z,4.77
2019-02-08T04:12:53.268Z,5.10
2019-02-08T04:15:23.372Z,4.13
2019-02-08T04:17:52.084Z,4.67
2019-02-08T04:20:26.107Z,4.03
2019-02-08T04:22:55.632Z,3.90
2019-02-08T04:25:24.612Z,4.50
2019-02-08T04:27:53.550Z,3.50
2019-02-08T04:30:27.074Z,3.80
2019-02-08T04:32:55.839Z,3.80
2019-02-08T04:35:24.575Z,3.93
2019-02-08T04:37:53.054Z,4.77
2019-02-08T04:40:23.380Z,4.50
2019-02-08T04:42:52.092Z,4.23
2019-02-08T04:45:20.795Z,4.87
2019-02-08T04:47:49.311Z,3.57
2019-02-08T04:50:26.095Z,3.80
2019-02-08T04:52:55.007Z,3.27
2019-02-08T04:55:23.467Z,4.20
2019-02-08T04:57:51.888Z,4.03
2019-02-08T05:00:31.333Z,4.17
2019-02-08T05:02:59.733Z,3.70
2019-02-08T05:05:28.261Z,4.00
2019-02-08T05:07:56.674Z,4.10
2019-02-08T05:10:27.877Z,4.37
2019-02-08T05:12:56.316Z,4.33
2019-02-08T05:15:24.950Z,4.43
2019-02-08T05:17:53.394Z,4.10
2019-02-08T05:20:24.380Z,4.13
2019-02-08T05:22:52.973Z,4.43
2019-02-08T05:25:21.618Z,4.00
2019-02-08T05:27:52.553Z,3.90
2019-02-08T05:30:32.400Z,4.30
2019-02-08T05:33:00.890Z,4.40
2019-02-08T05:35:29.415Z,4.10
2019-02-08T05:37:58.374Z,4.50
2019-02-08T05:40:26.829Z,3.77
2019-02-08T05:42:55.281Z,5.37
2019-02-08T05:45:25.002Z,4.13
2019-02-08T05:47:53.516Z,4.97
2019-02-08T05:50:31.721Z,5.00
2019-02-08T05:53:00.142Z,4.83
2019-02-08T05:55:30.746Z,5.27
2019-02-08T05:57:59.232Z,4.50
2019-02-08T06:00:37.967Z,4.80
2019-02-08T06:03:06.563Z,5.27
2019-02-08T06:05:35.087Z,5.80
2019-02-08T06:08:03.777Z,5.83
2019-02-08T06:10:32.223Z,6.40
2019-02-08T06:13:00.751Z,5.73
2019-02-08T06:15:29.230Z,6.10
2019-02-08T06:17:57.697Z,6.03
2019-02-08T06:20:26.901Z,5.70
2019-02-08T06:22:55.576Z,6.60
2019-02-08T06:25:24.565Z,5.53
2019-02-08T06:27:53.646Z,5.93
2019-02-08T06:30:30.085Z,7.00
2019-02-08T06:32:58.563Z,5.53
2019-02-08T06:35:27.957Z,6.67
2019-02-08T06:37:56.345Z,15.17
2019-02-08T06:40:33.385Z,7.33
2019-02-08T06:43:02.055Z,7.30
2019-02-08T06:45:30.986Z,6.20
2019-02-08T06:47:59.627Z,6.37
2019-02-08T06:50:29.193Z,6.50
2019-02-08T06:52:57.795Z,6.53
2019-02-08T06:55:27.180Z,7.10
2019-02-08T06:58:03.302Z,7.77
2019-02-08T07:00:36.184Z,7.10
2019-02-08T07:03:24.973Z,6.97
2019-02-08T07:06:11.211Z,7.10
2019-02-08T07:08:41.586Z,7.70
2019-02-08T07:11:13.222Z,7.43
2019-02-08T07:13:59.164Z,7.87
2019-02-08T07:16:45.079Z,7.30
2019-02-08T07:19:21.509Z,8.43
2019-02-08T07:22:07.698Z,6.67
2019-02-08T07:24:47.046Z,6.70
2019-02-08T07:27:23.305Z,6.57
2019-02-08T07:29:56.233Z,6.87
2019-02-08T07:32:26.306Z,6.47
2019-02-08T07:35:05.614Z,7.50
2019-02-08T07:37:38.505Z,6.60
2019-02-08T07:40:25.889Z,7.53
2019-02-08T07:42:59.636Z,6.33
2019-02-08T07:45:30.207Z,7.50
2019-02-08T07:48:01.256Z,7.53
2019-02-08T07:50:43.697Z,7.77
2019-02-08T07:53:29.992Z,6.73
2019-02-08T07:56:02.903Z,7.13
2019-02-08T07:58:42.027Z,7.10
2019-02-08T08:01:14.895Z,7.07
2019-02-08T08:03:49.331Z,7.20
2019-02-08T08:06:22.774Z,7.37
2019-02-08T08:09:01.392Z,7.10
2019-02-08T08:11:31.481Z,8.27
2019-02-08T08:14:02.189Z,6.40
2019-02-08T08:16:32.730Z,8.53
2019-02-08T08:19:03.607Z,7.00
2019-02-08T08:21:33.988Z,8.03
2019-02-08T08:24:07.011Z,7.47
2019-02-08T08:26:41.307Z,8.37
2019-02-08T08:29:11.583Z,8.13
2019-02-08T08:31:54.751Z,8.43
2019-02-08T08:34:48.598Z,9.03
2019-02-08T08:37:38.452Z,8.80
2019-02-08T08:40:28.258Z,7.80
2019-02-08T08:43:25.528Z,8.57
2019-02-08T08:46:05.796Z,7.37
2019-02-08T08:49:08.705Z,7.07
2019-02-08T08:52:13.560Z,6.70
2019-02-08T08:54:59.961Z,7.23
2019-02-08T08:57:31.485Z,7.30
2019-02-08T09:00:03.139Z,6.30
2019-02-08T09:02:46.150Z,8.03
2019-02-08T09:05:40.665Z,6.50
2019-02-08T09:08:21.382Z,6.63
2019-02-08T09:11:26.065Z,6.07
2019-02-08T09:14:06.271Z,6.73
2019-02-08T09:16:46.824Z,6.43
2019-02-08T09:19:24.129Z,6.57
2019-02-08T09:22:16.760Z,6.87
2019-02-08T09:24:57.364Z,6.37
2019-02-08T09:27:48.402Z,6.13
2019-02-08T09:30:42.408Z,4.87
2019-02-08T09:33:37.519Z,5.20
2019-02-08T09:36:31.529Z,6.17
2019-02-08T09:39:28.945Z,6.07
2019-02-08T09:42:17.287Z,5.13
2019-02-08T09:45:23.919Z,6.30
2019-02-08T09:48:07.288Z,5.50
2019-02-08T09:50:39.890Z,6.57
2019-02-08T09:53:11.984Z,6.10
2019-02-08T09:56:06.515Z,5.50
2019-02-08T09:59:11.528Z,5.50
2019-02-08T10:01:59.210Z,5.80
2019-02-08T10:04:36.334Z,5.20
2019-02-08T10:07:13.664Z,5.60
2019-02-08T10:10:12.340Z,5.33
2019-02-08T10:13:06.727Z,6.03
2019-02-08T10:15:56.615Z,5.47
2019-02-08T10:18:55.316Z,5.47
2019-02-08T10:21:42.156Z,5.87
2019-02-08T10:24:43.476Z,5.63
2019-02-08T10:27:48.028Z,6.13
2019-02-08T10:30:41.980Z,6.03
2019-02-08T10:33:47.024Z,6.23
2019-02-08T10:36:27.560Z,6.27
2019-02-08T10:39:08.208Z,6.93
2019-02-08T10:42:04.151Z,6.23
2019-02-08T10:44:50.562Z,5.77
2019-02-08T10:47:28.336Z,6.07
2019-02-08T10:50:02.812Z,6.33
2019-02-08T10:52:47.932Z,6.43
2019-02-08T10:55:39.021Z,7.17
2019-02-08T10:58:44.044Z,7.10
2019-02-08T11:01:32.018Z,6.73
2019-02-08T11:04:37.226Z,6.90
2019-02-08T11:07:39.404Z,5.60
2019-02-08T11:10:21.867Z,7.23
2019-02-08T11:13:20.612Z,6.77
2019-02-08T11:15:52.142Z,7.00
2019-02-08T11:18:48.074Z,5.87
2019-02-08T11:21:16.523Z,5.83
2019-02-08T11:23:44.903Z,6.43
2019-02-08T11:26:13.470Z,6.27
2019-02-08T11:28:42.016Z,5.83
2019-02-08T11:31:10.825Z,5.80
2019-02-08T11:33:39.282Z,5.80
2019-02-08T11:36:08.061Z,7.00
2019-02-08T11:38:38.025Z,6.30
2019-02-08T11:41:06.691Z,6.27
2019-02-08T11:43:35.162Z,6.40
2019-02-08T11:46:03.690Z,5.53
2019-02-08T11:48:32.058Z,5.73
2019-02-08T11:51:00.595Z,5.40
2019-02-08T11:53:29.213Z,5.70
2019-02-08T11:55:57.886Z,5.67
2019-02-08T11:58:26.546Z,6.20
2019-02-08T12:00:56.627Z,5.47
2019-02-08T12:03:25.264Z,5.27
2019-02-08T12:05:53.721Z,6.00
2019-02-08T12:08:22.264Z,5.03
2019-02-08T12:10:51.005Z,5.20
2019-02-08T12:13:19.557Z,5.67
2019-02-08T12:15:48.081Z,5.60
2019-02-08T12:18:18.644Z,5.27
2019-02-08T12:22:28.319Z,5.33
2019-02-08T12:24:57.052Z,6.20
2019-02-08T12:27:25.654Z,5.23
2019-02-08T12:29:54.365Z,5.50
2019-02-08T12:32:22.880Z,5.30
2019-02-08T12:34:51.704Z,5.10
2019-02-08T12:37:20.158Z,5.67
2019-02-08T12:39:48.778Z,5.57
2019-02-08T12:42:17.379Z,6.00
2019-02-08T12:44:46.424Z,5.20
2019-02-08T12:47:14.952Z,5.77
2019-02-08T12:49:44.888Z,5.33
2019-02-08T12:52:15.410Z,5.57
2019-02-08T12:54:44.692Z,5.73
2019-02-08T12:57:14.111Z,5.60
2019-02-08T12:59:45.046Z,5.80
2019-02-08T13:02:19.078Z,5.73
2019-02-08T13:04:47.732Z,5.60
2019-02-08T13:07:18.751Z,5.33
2019-02-08T13:09:52.470Z,6.03
2019-02-08T13:12:26.303Z,5.00
2019-02-08T13:14:56.761Z,4.93
2019-02-08T13:17:28.444Z,5.23
2019-02-08T13:19:57.042Z,4.77
2019-02-08T13:22:30.433Z,4.53
2019-02-08T13:25:01.133Z,4.90
2019-02-08T13:27:31.384Z,5.20
2019-02-08T13:29:59.959Z,4.23
2019-02-08T13:32:29.436Z,4.47
2019-02-08T13:34:57.945Z,4.17
2019-02-08T13:37:29.362Z,3.70
2019-02-08T13:39:57.878Z,3.73
2019-02-08T13:42:30.504Z,4.13
2019-02-08T13:45:02.385Z,4.23
2019-02-08T13:47:32.319Z,4.03
2019-02-08T13:50:01.896Z,4.60
2019-02-08T13:52:32.173Z,4.10
2019-02-08T13:55:00.688Z,3.87
2019-02-08T13:57:31.067Z,3.70
2019-02-08T14:00:02.535Z,3.53
2019-02-08T14:02:33.357Z,3.30
2019-02-08T14:05:01.868Z,2.97
2019-02-08T14:07:30.511Z,3.13
2019-02-08T14:09:59.463Z,3.67
2019-02-08T14:12:28.569Z,3.13
2019-02-08T14:14:57.276Z,3.50
2019-02-08T14:17:25.738Z,3.67
2019-02-08T14:19:54.090Z,2.90
2019-02-08T14:22:22.553Z,3.67
2019-02-08T14:24:51.052Z,3.70
2019-02-08T14:27:19.448Z,3.83
2019-02-08T14:29:47.803Z,3.53
2019-02-08T14:32:16.262Z,3.43
2019-02-08T14:34:44.682Z,3.97
2019-02-08T14:37:13.170Z,3.37
2019-02-08T14:39:41.918Z,2.90
2019-02-08T14:42:10.418Z,2.87
2019-02-08T14:44:40.626Z,3.20
2019-02-08T14:47:09.143Z,3.33
2019-02-08T14:49:39.877Z,3.33
2019-02-08T14:54:58.804Z,3.43
2019-02-08T14:57:27.409Z,3.50
2019-02-08T14:59:56.404Z,2.90
2019-02-08T15:02:27.548Z,3.67
2019-02-08T15:04:56.724Z,3.30
2019-02-08T15:07:25.891Z,3.27
2019-02-08T15:09:54.413Z,3.07
2019-02-08T15:12:22.755Z,2.83
2019-02-08T15:14:51.769Z,3.00
2019-02-08T15:17:20.459Z,3.47
2019-02-08T15:19:48.829Z,3.17
2019-02-08T15:22:17.559Z,2.60
2019-02-08T15:24:47.725Z,2.67
2019-02-08T15:27:24.013Z,2.67
2019-02-08T15:29:50.152Z,2.60
2019-02-08T15:32:20.720Z,2.73
2019-02-08T15:34:49.280Z,3.07
2019-02-08T15:37:18.768Z,3.77
2019-02-08T15:39:47.975Z,3.03
2019-02-08T15:42:17.080Z,2.50
2019-02-08T15:44:45.882Z,2.27
2019-02-08T15:47:14.602Z,2.90
2019-02-08T15:49:46.004Z,2.30
2019-02-08T15:52:14.976Z,2.83
2019-02-08T15:54:44.321Z,2.53
2019-02-08T15:57:13.053Z,2.77
2019-02-08T15:59:51.057Z,2.20
2019-02-08T16:02:21.193Z,2.97
2019-02-08T16:04:49.947Z,2.53
2019-02-08T16:07:18.654Z,2.80
2019-02-08T16:09:47.096Z,2.60
2019-02-08T16:12:17.844Z,2.70
2019-02-08T16:14:46.522Z,2.67
2019-02-08T16:17:17.497Z,3.03
2019-02-08T16:19:47.764Z,3.40
2019-02-08T16:22:16.347Z,2.70
2019-02-08T16:24:45.456Z,2.73
2019-02-08T16:27:13.971Z,2.70
2019-02-08T16:29:42.733Z,3.27
2019-02-08T16:32:12.395Z,3.37
2019-02-08T16:34:41.149Z,2.73
2019-02-08T16:37:11.752Z,3.27
2019-02-08T16:39:40.534Z,2.80
2019-02-08T16:42:10.959Z,2.80
2019-02-08T16:44:39.392Z,2.90
2019-02-08T16:47:09.204Z,3.00
2019-02-08T16:49:45.284Z,2.73
2019-02-08T16:52:13.961Z,2.70
2019-02-08T16:54:47.437Z,2.57
2019-02-08T16:57:15.742Z,2.50
2019-02-08T16:59:45.071Z,2.73
2019-02-08T17:02:15.602Z,2.83
2019-02-08T17:04:46.038Z,2.53
2019-02-08T17:07:16.265Z,2.80
2019-02-08T17:09:45.610Z,3.20
2019-02-08T17:12:14.433Z,3.10
2019-02-08T17:14:44.481Z,2.40
2019-02-08T17:17:13.351Z,2.83
2019-02-08T17:19:42.197Z,2.23
2019-02-08T17:22:12.183Z,2.13
2019-02-08T17:24:40.954Z,2.37
2019-02-08T17:27:14.511Z,2.40
2019-02-08T17:29:43.384Z,2.10
2019-02-08T17:32:14.721Z,2.60
2019-02-08T17:34:44.871Z,2.60
2019-02-08T17:37:15.427Z,3.53
2019-02-08T17:39:46.895Z,2.60
2019-02-08T17:42:18.730Z,2.43
2019-02-08T17:44:49.517Z,2.53
2019-02-08T17:47:19.312Z,2.80
2019-02-08T17:49:47.913Z,2.80
2019-02-08T17:52:16.815Z,3.03
2019-02-08T17:54:45.299Z,2.80
2019-02-08T17:57:15.512Z,3.00
2019-02-08T17:59:44.454Z,3.10
2019-02-08T18:02:14.537Z,2.40
2019-02-08T18:04:44.167Z,2.67
2019-02-08T18:07:13.769Z,2.57
2019-02-08T18:09:43.318Z,2.80
2019-02-08T18:12:13.596Z,2.70
2019-02-08T18:14:42.370Z,2.67
2019-02-08T18:17:14.207Z,3.00
2019-02-08T18:19:43.512Z,2.70
2019-02-08T18:22:14.721Z,2.57
2019-02-08T18:24:43.135Z,3.47
2019-02-08T18:27:11.743Z,2.40
2019-02-08T18:29:40.164Z,2.67
2019-02-08T18:32:08.757Z,2.40
2019-02-08T18:34:37.146Z,2.30
2019-02-08T18:37:05.964Z,2.50
2019-02-08T18:39:34.489Z,2.70
2019-02-08T18:42:02.897Z,3.47
2019-02-08T18:44:31.269Z,2.47
2019-02-08T18:46:59.751Z,2.70
2019-02-08T18:49:28.365Z,2.30
2019-02-08T18:51:57.048Z,3.23
2019-02-08T18:54:25.430Z,2.70
2019-02-08T18:56:53.846Z,27.13
2019-02-08T18:59:22.243Z,10.70
2019-02-08T19:01:51.514Z,10.47
2019-02-08T19:04:19.972Z,4.47
2019-02-08T19:06:49.002Z,3.30
2019-02-08T19:09:17.377Z,2.57
2019-02-08T19:11:46.080Z,2.53
2019-02-08T19:14:14.959Z,2.67
2019-02-08T19:16:43.813Z,3.00
2019-02-08T19:19:12.285Z,2.57
2019-02-08T19:21:40.673Z,2.50
2019-02-08T19:24:09.120Z,2.37
2019-02-08T19:26:37.702Z,2.70
2019-02-08T19:29:06.144Z,2.70
2019-02-08T19:31:36.149Z,2.83
2019-02-08T19:34:04.695Z,3.70
2019-02-08T19:36:33.109Z,2.67
2019-02-08T19:39:01.578Z,2.60
2019-02-08T19:41:30.072Z,2.90
2019-02-08T19:43:58.638Z,2.73
2019-02-08T19:46:27.250Z,2.97
2019-02-08T19:48:56.451Z,3.17
2019-02-08T19:51:26.805Z,3.17
2019-02-08T19:53:58.163Z,2.73
2019-02-08T19:56:26.774Z,2.90
2019-02-08T19:58:55.265Z,2.90
2019-02-08T20:01:23.759Z,2.87
2019-02-08T20:03:52.131Z,2.80
2019-02-08T20:06:20.742Z,3.10
2019-02-08T20:08:49.166Z,3.30
2019-02-08T20:11:17.884Z,3.50
2019-02-08T20:13:46.331Z,3.50
2019-02-08T20:16:15.080Z,3.23
2019-02-08T20:18:43.504Z,3.27
2019-02-08T20:21:11.898Z,3.40
2019-02-08T20:23:40.308Z,3.73
2019-02-08T20:26:09.005Z,3.30
2019-02-08T20:28:42.198Z,3.27
2019-02-08T20:31:07.546Z,2.60
2019-02-08T20:33:35.980Z,3.07
2019-02-08T20:36:04.740Z,3.30
2019-02-08T20:38:33.090Z,3.07
2019-02-08T20:41:01.466Z,3.00
2019-02-08T20:43:29.821Z,3.23
2019-02-08T20:46:03.057Z,2.40
2019-02-08T20:48:31.497Z,2.83
2019-02-08T20:50:59.937Z,2.40
2019-02-08T20:53:28.364Z,2.97
2019-02-08T20:55:57.079Z,2.73
2019-02-08T20:58:25.440Z,2.80
2019-02-08T21:00:53.883Z,2.80
2019-02-08T21:03:22.872Z,3.10
2019-02-08T21:05:51.456Z,3.37
2019-02-08T21:08:20.005Z,2.53
2019-02-08T21:10:48.499Z,2.60
2019-02-08T21:13:17.209Z,2.70
2019-02-08T21:15:45.635Z,2.40
2019-02-08T21:18:14.090Z,2.20
2019-02-08T21:20:42.667Z,2.40
2019-02-08T21:23:11.180Z,3.00
2019-02-08T21:25:41.169Z,2.90
2019-02-08T21:28:09.987Z,2.70
2019-02-08T21:30:38.394Z,2.93
2019-02-08T21:33:09.341Z,11.83
2019-02-08T21:35:37.949Z,3.30
2019-02-08T21:38:07.494Z,2.87
2019-02-08T21:40:36.385Z,2.73
2019-02-08T21:43:08.179Z,3.30
2019-02-08T21:45:40.795Z,3.27
2019-02-08T21:48:12.151Z,3.30
2019-02-08T21:50:42.203Z,3.30
2019-02-08T21:53:12.715Z,2.90
2019-02-08T21:55:42.934Z,3.17
2019-02-08T21:58:12.364Z,4.30
2019-02-08T22:00:42.720Z,3.13
2019-02-08T22:03:12.820Z,3.00
2019-02-08T22:05:45.182Z,3.13
2019-02-08T22:11:14.147Z,2.97
2019-02-08T22:13:46.264Z,2.60
2019-02-08T22:16:14.677Z,3.33
2019-02-08T22:18:45.777Z,3.57
2019-02-08T22:21:14.718Z,3.70
2019-02-08T22:23:43.508Z,3.50
2019-02-08T22:26:12.101Z,2.73
2019-02-08T22:28:41.521Z,2.80
2019-02-08T22:31:09.875Z,17.07
2019-02-08T22:33:38.323Z,2.90
2019-02-08T22:36:06.749Z,3.10
2019-02-08T22:38:35.183Z,2.83
2019-02-08T22:41:03.557Z,3.40
2019-02-08T22:43:32.079Z,2.97
2019-02-08T22:46:00.500Z,2.63
2019-02-08T22:48:30.419Z,2.30
2019-02-08T22:50:58.900Z,3.00
2019-02-08T22:53:30.749Z,3.30
2019-02-08T22:56:00.587Z,2.77
2019-02-08T22:58:29.218Z,2.73
2019-02-08T23:01:03.987Z,2.80
2019-02-08T23:03:34.278Z,3.40
2019-02-08T23:06:02.957Z,3.00
2019-02-08T23:08:31.629Z,2.90
2019-02-08T23:11:00.686Z,3.00
2019-02-08T23:13:33.263Z,4.17
2019-02-08T23:16:02.089Z,3.50
2019-02-08T23:18:33.459Z,3.20
2019-02-08T23:21:03.641Z,3.50
2019-02-08T23:23:34.230Z,3.03
2019-02-08T23:26:02.720Z,2.67
2019-02-08T23:28:31.534Z,3.10
2019-02-08T23:30:59.921Z,3.53
2019-02-08T23:33:28.531Z,3.10
2019-02-08T23:35:59.764Z,3.27
2019-02-08T23:38:29.507Z,3.00
2019-02-08T23:40:58.197Z,3.53
2019-02-08T23:43:32.270Z,3.00
2019-02-08T23:46:02.621Z,3.23
2019-02-08T23:48:32.201Z,3.63
2019-02-08T23:51:00.843Z,3.20
2019-02-08T23:53:29.838Z,3.60
2019-02-08T23:55:59.756Z,3.43
2019-02-08T23:58:30.852Z,3.57
